Time;durP1;ratioP1;P1;durP2;ratioP2;P2;SDS_P1;SDS_P2;PMS_P1;PMS_P2;Temp;Humidity;BMP_temperature;BMP_pressure;BME280_temperature;BME280_humidity;BME280_pressure;Samples;Min_cycle;Max_cycle;Signal;HPM_P1;HPM_P2
2022/05/18 00:01:34;;;;;;;9.30;3.35;;;;;;;18.30;60.20;98979.25;4487524;31;20084;-84
2022/05/18 00:04:00;;;;;;;8.90;3.33;;;;;;;18.42;59.54;98978.19;4487421;31;20157;-84
2022/05/18 00:06:25;;;;;;;8.50;3.17;;;;;;;18.41;59.87;98989.03;4487441;31;20112;-84
2022/05/18 00:08:51;;;;;;;9.55;3.53;;;;;;;18.33;59.29;98996.78;4487332;31;20092;-86
2022/05/18 00:11:18;;;;;;;8.90;3.25;;;;;;;18.27;59.87;98996.34;4487432;31;20188;-85
2022/05/18 00:13:46;;;;;;;9.20;3.67;;;;;;;18.25;59.60;98997.44;4486325;32;20156;-85
2022/05/18 00:16:13;;;;;;;9.13;3.15;;;;;;;18.09;59.39;98995.19;4487642;31;20194;-85
2022/05/18 00:18:39;;;;;;;7.60;3.03;;;;;;;18.25;59.07;98992.97;4486065;32;20120;-85
2022/05/18 00:21:05;;;;;;;10.18;3.20;;;;;;;18.09;59.21;98989.88;4487278;31;20118;-86
2022/05/18 00:23:30;;;;;;;8.23;3.40;;;;;;;18.15;58.68;98989.34;4487331;31;20089;-85
2022/05/18 00:25:56;;;;;;;7.97;3.03;;;;;;;18.21;58.06;98988.00;4487161;31;20200;-85
2022/05/18 00:28:22;;;;;;;8.75;2.92;;;;;;;18.23;57.38;98992.25;4486059;32;20092;-86
2022/05/18 00:30:47;;;;;;;7.82;2.90;;;;;;;18.32;57.61;98987.13;4487320;31;20092;-85
2022/05/18 00:33:12;;;;;;;7.68;2.80;;;;;;;18.38;56.47;99000.78;4485630;32;20080;-85
2022/05/18 00:35:39;;;;;;;9.65;3.10;;;;;;;18.40;54.94;99000.66;4487600;31;20114;-86
2022/05/18 00:38:05;;;;;;;7.97;2.78;;;;;;;18.38;55.65;99002.59;4487574;31;20546;-86
2022/05/18 00:40:31;;;;;;;9.23;2.70;;;;;;;18.25;55.68;98994.75;4487182;31;20119;-85
2022/05/18 00:42:57;;;;;;;7.82;2.70;;;;;;;18.28;55.34;98997.19;4485903;32;20160;-86
2022/05/18 00:45:22;;;;;;;6.85;2.70;;;;;;;18.24;53.87;99001.94;4485906;32;20100;-86
2022/05/18 00:47:48;;;;;;;11.23;2.78;;;;;;;18.23;54.27;99013.59;4486296;32;20158;-86
2022/05/18 00:50:18;;;;;;;7.68;2.80;;;;;;;18.23;54.23;99012.72;4487373;32;20116;-87
2022/05/18 00:52:59;;;;;;;7.93;2.60;;;;;;;18.22;53.27;99017.22;4487029;31;20127;-86
2022/05/18 00:55:26;;;;;;;9.30;2.60;;;;;;;18.35;52.73;99019.72;4486106;32;20721;-86
2022/05/18 00:58:11;;;;;;;7.97;2.45;;;;;;;18.55;52.28;99019.88;4487044;31;20364;-86
2022/05/18 01:00:38;;;;;;;12.00;2.50;;;;;;;18.57;51.85;99018.75;4487111;31;20085;-87
2022/05/18 01:03:16;;;;;;;8.30;2.60;;;;;;;18.23;52.72;99023.38;4485805;32;20080;-86
2022/05/18 01:05:44;;;;;;;7.62;2.60;;;;;;;18.47;52.00;99028.50;4485806;32;20108;-87
2022/05/18 01:08:11;;;;;;;7.40;2.37;;;;;;;18.48;52.14;99027.53;4485802;32;20108;-85
2022/05/18 01:10:36;;;;;;;9.52;2.62;;;;;;;18.32;52.00;99035.97;4484654;32;20135;-87
2022/05/18 01:13:03;;;;;;;9.32;2.50;;;;;;;18.22;52.36;99041.22;4486843;31;20110;-86
2022/05/18 01:15:29;;;;;;;5.57;2.40;;;;;;;18.67;51.58;99041.00;4485754;32;20096;-85
2022/05/18 01:17:58;;;;;;;8.15;2.53;;;;;;;18.20;51.10;99037.81;4485744;32;20516;-86
2022/05/18 01:20:26;;;;;;;6.32;2.12;;;;;;;18.36;50.75;99032.06;4485721;32;20089;-86
2022/05/18 01:23:08;;;;;;;9.82;2.50;;;;;;;18.45;50.54;99041.97;4485754;32;20100;-86
2022/05/18 01:25:52;;;;;;;8.38;2.55;;;;;;;18.33;49.85;99047.47;4485714;32;20131;-85
2022/05/18 01:28:17;;;;;;;9.55;2.60;;;;;;;18.55;49.36;99042.06;4486707;32;20107;-86
2022/05/18 01:30:47;;;;;;;8.48;2.42;;;;;;;18.39;49.98;99039.81;4486622;31;20073;-86
2022/05/18 01:33:15;;;;;;;6.47;2.30;;;;;;;18.52;49.81;99042.28;4486534;31;20099;-85
2022/05/18 01:35:43;;;;;;;7.40;2.50;;;;;;;18.62;49.78;99048.56;4485566;32;20125;-86
2022/05/18 01:38:12;;;;;;;5.85;2.10;;;;;;;18.73;49.13;99050.31;4485490;32;20104;-86
2022/05/18 01:40:58;;;;;;;9.13;2.70;;;;;;;18.38;49.19;99048.78;4486714;31;20110;-86
2022/05/18 01:43:47;;;;;;;9.35;2.58;;;;;;;18.21;50.23;99049.31;4486543;32;20085;-86
2022/05/18 01:46:15;;;;;;;8.52;2.30;;;;;;;18.44;50.03;99045.59;4485548;32;20130;-86
2022/05/18 01:48:45;;;;;;;8.20;2.40;;;;;;;18.20;48.66;99053.81;4485320;32;20167;-86
2022/05/18 01:51:11;;;;;;;7.03;2.17;;;;;;;18.24;48.46;99049.94;4486545;31;20394;-86
2022/05/18 01:53:37;;;;;;;8.10;2.53;;;;;;;18.13;49.34;99049.13;4485191;32;20145;-86
2022/05/18 01:56:03;;;;;;;7.20;2.20;;;;;;;17.81;50.47;99057.84;4486369;31;20402;-86
2022/05/18 01:58:28;;;;;;;7.37;3.00;;;;;;;18.16;49.81;99054.22;4486654;31;20123;-86
2022/05/18 02:00:54;;;;;;;7.57;2.37;;;;;;;18.02;50.08;99065.97;4486458;32;20359;-86
2022/05/18 02:03:20;;;;;;;9.30;2.45;;;;;;;17.68;50.73;99064.16;4486230;31;20107;-85
2022/05/18 02:05:46;;;;;;;6.55;2.45;;;;;;;18.00;50.20;99065.25;4486428;32;20123;-86
2022/05/18 02:08:13;;;;;;;9.32;2.60;;;;;;;17.86;50.79;99069.03;4485214;32;20449;-85
2022/05/18 02:10:38;;;;;;;9.10;2.47;;;;;;;17.43;51.90;99078.59;4485103;32;20092;-85
2022/05/18 02:13:04;;;;;;;8.88;2.30;;;;;;;17.66;51.59;99082.09;4486156;31;20099;-85
2022/05/18 02:15:30;;;;;;;8.27;2.60;;;;;;;17.53;52.00;99073.38;4484864;32;20127;-85
2022/05/18 02:17:55;;;;;;;7.57;2.67;;;;;;;17.38;52.59;99080.75;4486490;31;20333;-85
2022/05/18 02:20:21;;;;;;;8.23;2.50;;;;;;;17.75;51.74;99087.66;4485109;32;20084;-85
2022/05/18 02:22:47;;;;;;;7.82;2.30;;;;;;;17.81;51.51;99090.69;4487909;31;20084;-85
2022/05/18 02:25:13;;;;;;;6.22;2.20;;;;;;;17.91;51.29;99080.19;4488379;31;20169;-85
2022/05/18 02:27:39;;;;;;;9.27;2.83;;;;;;;17.41;52.17;99093.84;4488429;31;20126;-85
2022/05/18 02:30:07;;;;;;;9.27;2.65;;;;;;;17.54;52.03;99098.19;4486834;32;20110;-85
2022/05/18 02:32:33;;;;;;;8.85;2.80;;;;;;;17.45;52.35;99102.44;4487703;31;20084;-85
2022/05/18 02:34:58;;;;;;;7.95;2.67;;;;;;;17.39;52.54;99098.44;4486928;32;20383;-85
2022/05/18 02:37:23;;;;;;;8.88;2.97;;;;;;;17.01;54.05;99114.69;4488077;32;20103;-85
2022/05/18 02:39:49;;;;;;;9.68;2.62;;;;;;;17.31;53.48;99114.16;4488006;31;20080;-85
2022/05/18 02:42:14;;;;;;;8.43;3.10;;;;;;;17.14;54.34;99120.78;4488078;31;20072;-85
2022/05/18 02:44:40;;;;;;;9.32;3.30;;;;;;;17.07;55.04;99120.41;4486759;32;20127;-85
2022/05/18 02:47:05;;;;;;;8.27;2.90;;;;;;;17.02;55.33;99124.37;4486728;32;20104;-85
2022/05/18 02:49:31;;;;;;;11.43;3.33;;;;;;;17.06;55.55;99120.53;4486876;32;20124;-85
2022/05/18 02:51:57;;;;;;;11.52;3.10;;;;;;;16.89;56.30;99127.13;4487847;31;20142;-85
2022/05/18 02:57:07;;;;;;;9.52;3.08;;;;;;;17.06;56.12;99132.00;4488052;32;20164;-85
2022/05/18 02:59:34;;;;;;;9.70;3.50;;;;;;;16.77;57.08;99138.66;4486755;32;20116;-85
2022/05/18 03:02:00;;;;;;;11.05;3.28;;;;;;;16.77;57.35;99143.97;4487788;31;20122;-85
2022/05/18 03:04:25;;;;;;;10.55;3.60;;;;;;;16.83;57.27;99143.56;4487925;31;20360;-85
2022/05/18 03:06:52;;;;;;;9.60;3.33;;;;;;;16.85;57.27;99152.25;4487866;31;20088;-85
2022/05/18 03:09:18;;;;;;;9.38;3.17;;;;;;;16.97;56.72;99155.81;4486544;32;20096;-85
2022/05/18 03:11:44;;;;;;;8.50;2.97;;;;;;;16.85;56.57;99154.91;4487831;31;20111;-86
2022/05/18 03:14:09;;;;;;;10.25;3.40;;;;;;;16.93;54.45;99159.66;4487761;31;20364;-85
2022/05/18 03:16:35;;;;;;;7.35;3.00;;;;;;;16.35;56.63;99165.63;4487846;31;20159;-85
2022/05/18 03:19:00;;;;;;;8.95;3.30;;;;;;;16.64;56.27;99165.31;4486591;32;20096;-86
2022/05/18 03:24:10;;;;;;;8.80;2.97;;;;;;;16.48;55.64;99184.22;4487875;32;20133;-85
2022/05/18 03:26:36;;;;;;;8.60;2.97;;;;;;;16.58;54.68;99187.88;4487849;31;20084;-86
2022/05/18 03:29:02;;;;;;;8.98;2.75;;;;;;;16.79;52.60;99187.28;4487621;31;20136;-84
2022/05/18 03:31:27;;;;;;;8.98;2.60;;;;;;;16.70;51.74;99194.13;4487540;31;20103;-85
2022/05/18 03:33:58;;;;;;;7.07;2.42;;;;;;;16.84;51.23;99199.31;4486716;31;20109;-85
2022/05/18 03:36:23;;;;;;;7.47;2.58;;;;;;;16.94;50.59;99201.28;4487810;31;20119;-85
2022/05/18 03:38:50;;;;;;;7.03;2.17;;;;;;;16.84;49.36;99201.09;4487732;31;20096;-84
2022/05/18 03:41:16;;;;;;;7.12;2.28;;;;;;;16.92;49.64;99203.19;4487660;31;20129;-87
2022/05/18 03:43:42;;;;;;;10.50;2.72;;;;;;;17.18;48.43;99203.94;4487712;31;20105;-86
2022/05/18 03:46:08;;;;;;;8.15;2.35;;;;;;;17.24;48.42;99212.28;4487724;31;20088;-86
2022/05/18 03:48:34;;;;;;;5.90;2.10;;;;;;;17.32;48.51;99214.38;4487927;31;20092;-86
2022/05/18 03:51:01;;;;;;;7.53;2.08;;;;;;;17.43;47.15;99208.25;4487776;31;20116;-85
2022/05/18 03:53:27;;;;;;;8.18;2.20;;;;;;;17.75;45.22;99213.78;4486188;32;20149;-85
2022/05/18 03:55:52;;;;;;;7.60;2.30;;;;;;;17.62;45.57;99223.69;4487588;31;20099;-85
2022/05/18 03:58:18;;;;;;;6.30;2.08;;;;;;;18.05;44.37;99231.87;4487478;31;20380;-84
2022/05/18 04:00:45;;;;;;;7.18;2.22;;;;;;;17.98;44.69;99228.00;4487724;31;20080;-85
2022/05/18 04:03:12;;;;;;;8.10;2.60;;;;;;;18.32;43.96;99230.66;4486494;32;20127;-85
2022/05/18 04:05:38;;;;;;;6.60;2.30;;;;;;;18.40;44.21;99240.72;4486595;32;20130;-84
2022/05/18 04:08:11;;;;;;;12.35;2.35;;;;;;;18.57;44.25;99240.22;4487450;31;20459;-84
2022/05/18 04:10:38;;;;;;;8.70;2.20;;;;;;;18.69;43.89;99241.03;4487316;31;20149;-84
2022/05/18 04:13:04;;;;;;;7.55;2.90;;;;;;;18.75;44.28;99253.87;4486234;32;20093;-84
2022/05/18 04:15:30;;;;;;;9.52;2.35;;;;;;;18.76;44.18;99255.59;4487448;31;20126;-85
2022/05/18 04:17:56;;;;;;;8.43;2.53;;;;;;;18.93;44.52;99264.06;4487252;31;20092;-85
2022/05/18 04:20:23;;;;;;;6.15;2.08;;;;;;;19.22;43.95;99259.03;4487605;32;20092;-86
2022/05/18 04:22:49;;;;;;;7.37;2.55;;;;;;;19.23;43.86;99263.38;4487624;31;20169;-85
2022/05/18 04:25:18;;;;;;;8.35;2.30;;;;;;;19.31;43.96;99270.75;4486318;32;20096;-85
2022/05/18 04:27:47;;;;;;;6.85;2.40;;;;;;;19.42;43.99;99281.41;4487273;31;20088;-85
2022/05/18 04:30:14;;;;;;;6.95;2.10;;;;;;;19.75;44.19;99276.91;4486257;32;20088;-84
2022/05/18 04:32:40;;;;;;;9.02;2.62;;;;;;;19.18;44.43;99276.25;4487075;31;20096;-85
2022/05/18 04:35:08;;;;;;;7.65;2.30;;;;;;;19.64;43.98;99292.00;4487439;31;20121;-85
2022/05/18 04:37:33;;;;;;;;;;;;;;;19.80;44.26;99291.56;4487582;31;20375;-85
2022/05/18 04:39:59;;;;;;;5.90;2.20;;;;;;;20.01;43.08;99290.69;4486049;32;19987;-85
2022/05/18 04:42:24;;;;;;;6.93;2.80;;;;;;;20.04;43.29;99293.13;4487177;31;20389;-86
2022/05/18 04:44:50;;;;;;;5.72;1.98;;;;;;;19.86;41.85;99308.91;4487034;31;20102;-86
2022/05/18 04:47:17;;;;;;;8.15;2.33;;;;;;;19.50;42.39;99308.31;4486091;32;20076;-87
2022/05/18 04:49:42;;;;;;;7.28;2.45;;;;;;;19.70;42.90;99311.12;4486024;32;20085;-87
2022/05/18 04:52:08;;;;;;;8.40;2.70;;;;;;;18.48;45.22;99320.97;4485794;32;20387;-88
2022/05/18 04:54:35;;;;;;;7.32;2.45;;;;;;;19.21;44.18;99322.25;4487223;31;20099;-87
2022/05/18 04:57:00;;;;;;;7.17;2.50;;;;;;;19.33;44.23;99324.91;4486038;32;20084;-88
2022/05/18 04:59:26;;;;;;;6.93;2.40;;;;;;;19.30;43.84;99334.03;4487127;31;20111;-85
2022/05/18 05:01:51;;;;;;;8.88;2.40;;;;;;;19.50;43.24;99334.19;4486148;32;20148;-85
2022/05/18 05:04:17;;;;;;;7.82;2.45;;;;;;;19.55;43.84;99338.19;4487290;31;20096;-85
2022/05/18 05:06:43;;;;;;;6.90;2.30;;;;;;;19.56;43.24;99347.03;4487058;31;20125;-85
2022/05/18 05:09:09;;;;;;;7.43;2.50;;;;;;;19.65;42.87;99344.47;4485913;32;20088;-86
2022/05/18 05:11:35;;;;;;;6.80;2.37;;;;;;;19.57;42.29;99351.44;4486905;31;20435;-85
2022/05/18 05:14:00;;;;;;;6.50;2.22;;;;;;;19.91;42.09;99359.31;4487060;31;20080;-85
2022/05/18 05:16:28;;;;;;;7.37;2.28;;;;;;;20.07;42.99;99359.72;4486904;31;20076;-84
2022/05/18 05:18:53;;;;;;;7.78;2.20;;;;;;;20.01;40.84;99358.44;4487009;31;20449;-84
2022/05/18 05:21:18;;;;;;;7.12;2.15;;;;;;;20.00;40.32;99375.44;4486923;31;20129;-84
2022/05/18 05:23:46;;;;;;;7.80;2.30;;;;;;;20.26;40.71;99374.19;4486818;31;20106;-86
2022/05/18 05:26:11;;;;;;;;;;;;;;;20.51;39.94;99376.44;4486026;32;20147;-86
2022/05/18 05:28:37;;;;;;;9.52;2.00;;;;;;;20.15;39.06;99389.34;4486808;31;20032;-86
2022/05/18 05:31:04;;;;;;;8.63;2.08;;;;;;;20.33;38.25;99396.78;4486677;31;20119;-86
2022/05/18 05:33:30;;;;;;;7.93;2.40;;;;;;;20.43;38.98;99395.00;4486545;31;20709;-86
2022/05/18 05:35:55;;;;;;;7.18;2.40;;;;;;;20.75;38.02;99389.59;4486702;31;20080;-85
2022/05/18 05:38:20;;;;;;;9.10;2.10;;;;;;;20.78;37.19;99404.53;4486819;32;20420;-85
2022/05/18 05:40:46;;;;;;;10.02;2.10;;;;;;;20.37;38.48;99411.59;4486713;31;20154;-85
2022/05/18 05:43:12;;;;;;;7.35;2.00;;;;;;;20.31;38.15;99412.97;4486724;31;20088;-86
2022/05/18 05:45:38;;;;;;;5.97;1.95;;;;;;;20.43;37.46;99424.44;4485447;32;20143;-83
2022/05/18 05:48:05;;;;;;;7.78;2.00;;;;;;;20.53;36.82;99425.38;4485317;32;20470;-83
2022/05/18 05:50:33;;;;;;;6.18;1.83;;;;;;;20.51;36.23;99432.66;4486722;31;20096;-83
2022/05/18 05:52:59;;;;;;;6.85;1.90;;;;;;;20.08;36.48;99425.59;4486536;31;20402;-84
2022/05/18 05:55:26;;;;;;;6.72;1.73;;;;;;;20.12;36.96;99432.38;4485467;32;20461;-83
2022/05/18 05:57:54;;;;;;;7.07;1.92;;;;;;;19.80;36.59;99445.78;4485800;32;20076;-82
2022/05/18 06:00:19;;;;;;;;;;;;;;;19.22;37.70;99452.19;4486427;31;20100;-83
2022/05/18 06:02:44;;;;;;;6.20;1.60;;;;;;;19.16;37.90;99457.16;4485963;31;20363;-82
2022/05/18 06:05:10;;;;;;;5.62;1.70;;;;;;;19.31;37.95;99463.94;4485384;31;20154;-83
2022/05/18 06:07:36;;;;;;;7.05;2.05;;;;;;;19.15;37.50;99463.47;4502411;31;20450;-83
2022/05/18 06:10:01;;;;;;;7.22;1.70;;;;;;;19.41;37.36;99462.25;4488017;31;20131;-83
2022/05/18 06:12:27;;;;;;;6.82;1.70;;;;;;;19.66;37.04;99460.22;4502261;31;20127;-82
2022/05/18 06:14:53;;;;;;;7.07;1.83;;;;;;;19.94;37.01;99460.69;4502321;31;20519;-83
2022/05/18 06:17:19;;;;;;;7.80;1.90;;;;;;;20.10;36.78;99466.44;4502304;31;20080;-81
2022/05/18 06:19:44;;;;;;;6.60;1.95;;;;;;;20.21;36.15;99469.06;4485049;31;20127;-80
2022/05/18 06:22:09;;;;;;;8.57;1.92;;;;;;;20.12;35.07;99472.50;4485428;31;20109;-79
2022/05/18 06:24:35;;;;;;;6.78;1.83;;;;;;;20.25;35.56;99469.69;4485454;32;20377;-79
2022/05/18 06:27:01;;;;;;;7.18;2.10;;;;;;;20.44;34.69;99479.69;4478533;32;20186;-81
2022/05/18 06:29:26;;;;;;;8.68;2.10;;;;;;;20.19;34.92;99487.09;4486081;32;20136;-86
2022/05/18 06:31:52;;;;;;;6.87;2.03;;;;;;;20.19;35.34;99479.06;4471623;32;20144;-85
2022/05/18 06:34:21;;;;;;;14.30;1.83;;;;;;;19.84;36.30;99490.00;4485686;32;20092;-89
2022/05/18 06:36:46;;;;;;;5.68;1.87;;;;;;;20.08;35.45;99496.97;4471647;32;20670;-84
2022/05/18 06:39:12;;;;;;;8.65;1.77;;;;;;;20.17;35.71;99506.94;4472075;32;20105;-84
2022/05/18 06:41:37;;;;;;;12.07;2.62;;;;;;;20.26;35.39;99521.34;4486105;32;20080;-88
2022/05/18 06:44:04;;;;;;;11.85;2.67;;;;;;;20.41;35.40;99520.06;4471533;32;20466;-87
2022/05/18 06:46:33;;;;;;;9.35;2.15;;;;;;;20.54;34.65;99519.91;4486082;32;20080;-85
2022/05/18 06:48:58;;;;;;;7.10;1.80;;;;;;;20.49;34.20;99522.09;4485854;32;20122;-86
2022/05/18 06:51:27;;;;;;;10.75;2.40;;;;;;;20.66;33.87;99518.88;4485764;32;20096;-86
2022/05/18 06:53:54;;;;;;;13.73;2.10;;;;;;;20.74;35.81;99524.44;4471495;32;20493;-82
2022/05/18 06:56:25;;;;;;;11.12;2.12;;;;;;;20.93;35.79;99531.75;4485814;32;20068;-83
2022/05/18 06:58:51;;;;;;;7.95;2.00;;;;;;;21.04;35.72;99538.88;4471569;32;20096;-85
2022/05/18 07:01:17;;;;;;;5.72;1.67;;;;;;;21.19;35.64;99532.19;4471445;32;20164;-86
2022/05/18 07:03:46;;;;;;;6.22;1.98;;;;;;;21.48;34.62;99525.25;4485497;32;20478;-91
2022/05/18 07:06:13;;;;;;;7.35;1.73;;;;;;;21.57;33.88;99538.69;4471565;32;20073;-80
2022/05/18 07:08:39;;;;;;;5.95;1.90;;;;;;;21.63;30.99;99539.16;4485874;31;20104;-79
2022/05/18 07:11:05;;;;;;;5.45;1.60;;;;;;;21.38;32.65;99552.88;4487914;32;20088;-78
2022/05/18 07:13:34;;;;;;;6.30;1.50;;;;;;;21.61;32.10;99547.31;4487756;32;20100;-82
2022/05/18 07:16:01;;;;;;;4.68;1.33;;;;;;;21.62;30.47;99553.56;4473573;32;20084;-80
2022/05/18 07:18:30;;;;;;;7.75;1.80;;;;;;;21.03;31.38;99558.59;4473521;32;20100;-80
2022/05/18 07:20:57;;;;;;;8.50;2.10;;;;;;;20.69;30.63;99569.50;4473612;32;20184;-80
2022/05/18 07:23:24;;;;;;;5.55;1.73;;;;;;;20.87;33.38;99558.22;4473615;32;20111;-80
2022/05/18 07:25:50;;;;;;;6.57;1.77;;;;;;;20.95;32.64;99578.00;4473517;32;20092;-80
2022/05/18 07:28:16;;;;;;;6.93;1.62;;;;;;;20.28;31.95;99580.94;4487866;32;20100;-79
2022/05/18 07:30:41;;;;;;;6.12;1.83;;;;;;;20.48;31.57;99579.31;4487737;32;20084;-80
2022/05/18 07:33:07;;;;;;;9.93;2.03;;;;;;;20.42;32.13;99577.97;4473144;32;20088;-79
2022/05/18 07:35:33;;;;;;;5.37;1.50;;;;;;;20.45;32.02;99569.69;4487818;32;20080;-80
2022/05/18 07:37:58;;;;;;;6.72;2.10;;;;;;;20.46;32.36;99573.22;4487711;32;20388;-80
2022/05/18 07:40:24;;;;;;;6.55;1.73;;;;;;;20.58;33.11;99590.94;4487685;32;20114;-79
2022/05/18 07:42:54;;;;;;;6.78;1.80;;;;;;;20.68;33.01;99591.03;4473301;32;20092;-80
2022/05/18 07:45:21;;;;;;;7.07;1.60;;;;;;;20.61;34.18;99586.22;4473939;32;20110;-80
2022/05/18 07:47:46;;;;;;;7.55;1.92;;;;;;;20.60;33.79;99592.53;4487746;32;20453;-80
2022/05/18 07:50:12;;;;;;;6.97;1.85;;;;;;;20.60;34.19;99597.87;4473225;32;20088;-80
2022/05/18 07:52:38;;;;;;;7.55;1.80;;;;;;;20.73;34.27;99604.91;4473417;32;20092;-80
2022/05/18 07:55:04;;;;;;;10.48;2.75;;;;;;;20.37;34.82;99609.63;4473283;32;20111;-80
2022/05/18 07:57:30;;;;;;;7.37;2.30;;;;;;;20.52;34.08;99612.87;4487436;32;20093;-80
2022/05/18 07:59:59;;;;;;;7.15;2.10;;;;;;;20.39;34.09;99602.31;4487480;32;20111;-80
2022/05/18 08:02:25;;;;;;;7.75;2.10;;;;;;;20.49;33.93;99605.06;4473574;32;20080;-80
2022/05/18 08:04:51;;;;;;;10.73;2.33;;;;;;;20.60;34.25;99607.75;4487463;32;20122;-80
2022/05/18 08:07:17;;;;;;;5.80;1.80;;;;;;;20.78;33.79;99614.25;4473318;32;20128;-80
2022/05/18 08:15:10;;;;;;;7.85;1.90;;;;;;;20.88;33.29;99624.16;4487404;32;20148;-80
2022/05/18 08:17:35;;;;;;;7.55;2.10;;;;;;;20.60;33.40;99634.53;4487378;32;20093;-80
2022/05/18 08:20:06;;;;;;;8.70;2.30;;;;;;;20.70;34.16;99634.59;4472978;32;20118;-80
2022/05/18 08:22:32;;;;;;;8.43;2.30;;;;;;;20.84;33.98;99655.72;4487711;32;20089;-80
2022/05/18 08:24:57;;;;;;;7.07;1.90;;;;;;;21.01;32.35;99655.19;4487528;32;20073;-80
2022/05/18 08:27:23;;;;;;;8.93;2.12;;;;;;;20.79;32.34;99660.63;4487498;32;20148;-80
2022/05/18 08:29:48;;;;;;;7.25;2.00;;;;;;;20.90;32.60;99649.87;4487646;32;20132;-80
2022/05/18 08:32:13;;;;;;;5.12;1.80;;;;;;;20.80;33.13;99652.47;4487448;32;20096;-80
2022/05/18 08:34:39;;;;;;;6.12;1.77;;;;;;;21.01;32.12;99657.84;4487350;32;20080;-80
2022/05/18 08:37:04;;;;;;;7.87;2.00;;;;;;;21.09;31.72;99646.47;4487455;32;20432;-80
2022/05/18 08:39:30;;;;;;;6.82;1.70;;;;;;;21.19;30.95;99657.28;4487601;32;20118;-80
2022/05/18 08:41:57;;;;;;;6.60;1.87;;;;;;;21.30;31.14;99648.31;4487462;32;20140;-80
2022/05/18 08:44:34;;;;;;;6.35;1.73;;;;;;;21.36;30.86;99656.69;4487511;32;20068;-80
2022/05/18 08:47:06;;;;;;;7.95;1.77;;;;;;;21.45;31.31;99655.06;4473731;32;20104;-80
2022/05/18 08:49:46;;;;;;;8.32;2.10;;;;;;;21.44;30.00;99669.47;4487180;32;20352;-80
2022/05/18 08:52:20;;;;;;;5.87;1.90;;;;;;;21.41;30.15;99669.69;4487111;32;20075;-80
2022/05/18 08:54:52;;;;;;;7.53;1.80;;;;;;;21.19;28.91;99671.50;4487238;32;21026;-80
2022/05/18 08:57:28;;;;;;;7.68;1.65;;;;;;;21.16;30.04;99673.59;4472993;32;20101;-80
2022/05/18 08:59:59;;;;;;;6.85;1.85;;;;;;;21.16;29.13;99663.72;4473082;32;20104;-80
2022/05/18 09:02:28;;;;;;;5.53;1.40;;;;;;;21.08;28.96;99681.44;4472916;32;20080;-80
2022/05/18 09:05:08;;;;;;;8.95;1.60;;;;;;;20.90;28.97;99683.81;4472912;32;20108;-80
2022/05/18 09:07:43;;;;;;;5.43;1.70;;;;;;;20.78;30.33;99683.88;4472914;32;20096;-80
2022/05/18 09:10:21;;;;;;;6.18;1.50;;;;;;;20.70;29.29;99677.44;4473137;32;20104;-80
2022/05/18 09:12:50;;;;;;;5.55;1.48;;;;;;;20.79;30.15;99682.03;4473016;32;20472;-79
2022/05/18 09:15:25;;;;;;;8.90;1.60;;;;;;;20.97;29.26;99685.84;4487198;32;20432;-80
2022/05/18 09:17:56;;;;;;;5.93;1.55;;;;;;;20.89;29.10;99676.78;4487362;32;20455;-79
2022/05/18 09:21:00;;;;;;;6.45;1.60;;;;;;;20.99;28.83;99688.41;4472987;32;20096;-80
2022/05/18 09:23:44;;;;;;;8.23;1.75;;;;;;;20.76;29.10;99690.31;4422768;32;20132;-80
2022/05/18 09:26:20;;;;;;;4.97;1.77;;;;;;;20.55;28.27;99684.88;4422595;32;20162;-80
2022/05/18 09:29:16;;;;;;;7.55;1.75;;;;;;;20.53;28.82;99685.03;4409776;32;20164;-80
2022/05/18 09:32:03;;;;;;;6.57;1.60;;;;;;;20.52;29.04;99694.00;4421492;32;20106;-80
2022/05/18 09:34:43;;;;;;;4.87;1.70;;;;;;;20.35;29.52;99686.50;4422354;32;20271;-79
2022/05/18 09:37:09;;;;;;;4.68;1.30;;;;;;;19.87;30.54;99697.47;4422436;32;20511;-80
2022/05/18 09:39:43;;;;;;;7.15;1.77;;;;;;;20.03;29.75;99681.94;4409443;32;20153;-80
2022/05/18 09:42:14;;;;;;;8.00;1.60;;;;;;;19.49;29.74;99695.91;4410056;32;20125;-80
2022/05/18 09:44:45;;;;;;;4.68;1.40;;;;;;;19.78;29.62;99704.37;4397009;32;20120;-80
2022/05/18 09:47:14;;;;;;;4.97;1.40;;;;;;;20.00;29.02;99700.88;4422282;32;20116;-79
2022/05/18 09:49:51;;;;;;;5.82;1.75;;;;;;;19.99;28.66;99710.72;4409638;32;20470;-80
2022/05/18 09:52:18;;;;;;;4.18;1.23;;;;;;;19.92;27.54;99689.94;4422407;32;20094;-80
2022/05/18 09:54:44;;;;;;;5.07;1.50;;;;;;;20.06;28.26;99705.72;4409466;32;20117;-80
2022/05/18 09:57:35;;;;;;;6.05;1.35;;;;;;;20.02;27.91;99704.28;4409758;32;20123;-80
2022/05/18 10:00:10;;;;;;;6.78;1.40;;;;;;;20.19;27.65;99692.25;4434342;32;20270;-79
2022/05/18 10:08:20;;;;;;;7.10;1.85;;;;;;;19.75;27.21;99700.12;4486444;32;20473;-80
2022/05/18 10:10:46;;;;;;;5.93;1.60;;;;;;;20.03;28.10;99701.50;4486558;32;20134;-80
2022/05/18 10:13:17;;;;;;;7.30;1.48;;;;;;;20.18;27.59;99703.91;4472057;32;20113;-80
2022/05/18 10:15:48;;;;;;;6.35;1.50;;;;;;;20.41;27.04;99700.22;4472222;32;20155;-80
2022/05/18 10:18:23;;;;;;;6.18;1.65;;;;;;;20.33;26.58;99710.69;4471917;32;20132;-80
2022/05/18 10:21:16;;;;;;;8.43;1.50;;;;;;;20.34;26.28;99708.88;4486195;32;20161;-79
2022/05/18 10:24:04;;;;;;;5.22;1.52;;;;;;;19.97;26.87;99706.47;4486470;32;20107;-80
2022/05/18 10:26:38;;;;;;;5.62;1.33;;;;;;;20.07;27.62;99694.06;4486231;32;20156;-80
2022/05/18 10:29:07;;;;;;;6.53;1.50;;;;;;;19.97;28.05;99701.09;4472186;32;20105;-80
2022/05/18 10:31:38;;;;;;;5.53;1.30;;;;;;;20.17;28.05;99700.38;4486178;32;20160;-80
2022/05/18 10:34:15;;;;;;;5.40;1.20;;;;;;;20.47;27.64;99692.69;4485969;32;20152;-80
2022/05/18 10:36:46;;;;;;;5.50;1.33;;;;;;;20.57;27.53;99689.13;4486012;32;20096;-80
2022/05/18 10:39:12;;;;;;;5.62;1.40;;;;;;;20.63;26.54;99685.16;4458752;32;20463;-80
2022/05/18 10:41:43;;;;;;;4.12;1.35;;;;;;;20.80;26.48;99691.75;4458401;32;20108;-80
2022/05/18 10:44:19;;;;;;;4.82;1.33;;;;;;;20.42;25.63;99680.53;4473740;32;20157;-80
2022/05/18 10:46:47;;;;;;;4.47;1.50;;;;;;;20.53;27.19;99682.34;4488280;32;20107;-80
2022/05/18 10:49:35;;;;;;;4.80;1.33;;;;;;;20.77;26.95;99684.00;4473854;32;20079;-79
2022/05/18 10:52:20;;;;;;;8.93;1.60;;;;;;;20.83;25.42;99674.63;4473746;32;20111;-80
2022/05/18 10:54:57;;;;;;;4.87;1.30;;;;;;;20.69;26.67;99679.28;4473838;32;20105;-80
2022/05/18 10:57:36;;;;;;;7.50;1.30;;;;;;;20.24;26.13;99676.66;4473754;32;20092;-80
2022/05/18 11:00:10;;;;;;;4.50;1.30;;;;;;;20.11;24.78;99690.19;4473675;32;20107;-80
2022/05/18 11:03:16;;;;;;;5.32;1.33;;;;;;;20.52;24.33;99674.44;4488020;32;20092;-80
2022/05/18 11:05:53;;;;;;;3.53;1.00;;;;;;;20.72;24.35;99683.53;4395598;32;20122;-80
2022/05/18 11:08:21;;;;;;;6.10;1.37;;;;;;;20.68;22.81;99677.56;4395768;32;20136;-80
2022/05/18 11:10:59;;;;;;;7.70;1.30;;;;;;;20.76;24.31;99677.78;4408300;32;20082;-80
2022/05/18 11:13:50;;;;;;;5.63;1.30;;;;;;;20.90;24.43;99673.09;4395700;32;20507;-80
2022/05/18 11:16:22;;;;;;;2.95;1.00;;;;;;;20.92;22.05;99669.34;4395732;32;20128;-80
2022/05/18 11:19:31;;;;;;;5.43;1.20;;;;;;;20.83;22.09;99669.25;4408194;32;20163;-80
2022/05/18 11:22:18;;;;;;;3.75;1.10;;;;;;;21.00;22.73;99679.41;4405934;32;20631;-80
2022/05/18 11:24:46;;;;;;;6.32;1.40;;;;;;;21.12;23.04;99675.69;4408260;32;20102;-80
2022/05/18 11:27:29;;;;;;;7.57;1.60;;;;;;;21.08;22.99;99676.94;4408083;32;20118;-80
2022/05/18 11:30:05;;;;;;;4.37;1.25;;;;;;;21.15;23.69;99663.84;4408335;32;20798;-80
2022/05/18 11:32:55;;;;;;;2.62;1.10;;;;;;;20.87;24.51;99659.97;4395369;32;20592;-80
2022/05/18 11:35:26;;;;;;;4.32;1.30;;;;;;;20.69;23.89;99671.25;4408420;32;20132;-80
2022/05/18 11:38:27;;;;;;;5.28;1.30;;;;;;;20.78;24.00;99673.16;4408097;32;20106;-80
2022/05/18 11:41:14;;;;;;;4.53;1.15;;;;;;;20.95;24.32;99671.75;4423280;32;20116;-80
2022/05/18 11:44:07;;;;;;;4.90;1.48;;;;;;;20.93;24.04;99673.69;4423535;32;20237;-80
2022/05/18 11:47:06;;;;;;;7.35;1.40;;;;;;;20.98;23.95;99658.09;4423233;32;20102;-80
2022/05/18 11:49:50;;;;;;;3.45;1.20;;;;;;;20.87;23.49;99673.37;4423607;32;20106;-80
2022/05/18 11:52:24;;;;;;;5.12;1.10;;;;;;;20.82;23.61;99660.34;4423232;32;20105;-80
2022/05/18 11:55:41;;;;;;;3.87;1.30;;;;;;;20.83;23.79;99666.56;4422404;32;20104;-80
2022/05/18 11:58:48;;;;;;;5.28;1.10;;;;;;;20.98;21.82;99663.47;4362694;32;20103;-80
2022/05/18 12:01:40;;;;;;;5.37;1.20;;;;;;;21.08;21.67;99665.37;4362818;32;20108;-80
2022/05/18 12:04:23;;;;;;;6.95;1.27;;;;;;;21.24;21.91;99679.16;4362591;32;20091;-79